Time;durP1;ratioP1;P1;durP2;ratioP2;P2;SDS_P1;SDS_P2;PMS_P1;PMS_P2;Temp;Humidity;BMP_temperature;BMP_pressure;BME280_temperature;BME280_humidity;BME280_pressure;Samples;Min_cycle;Max_cycle;Signal;HPM_P1;HPM_P2
2022/09/26 00:01:25;;;;;;;1.00;1.00;;;;;;;;;;5051710;28;20225;-84
2022/09/26 00:03:55;;;;;;;2.00;1.20;;;;;;;;;;5069075;28;20206;-84
2022/09/26 00:06:24;;;;;;;4.47;1.00;;;;;;;;;;5040269;28;20200;-84
2022/09/26 00:08:52;;;;;;;5.30;1.30;;;;;;;;;;5067925;28;20200;-84
2022/09/26 00:11:22;;;;;;;3.17;1.33;;;;;;;;;;5032951;28;20197;-84
2022/09/26 00:13:52;;;;;;;0.70;0.70;;;;;;;;;;5036336;28;20206;-84
2022/09/26 00:16:23;;;;;;;1.07;1.00;;;;;;;;;;5068933;28;20257;-83
2022/09/26 00:18:52;;;;;;;1.20;1.10;;;;;;;;;;5068205;28;20255;-84
2022/09/26 00:21:20;;;;;;;1.93;1.10;;;;;;;;;;5058458;28;20252;-83
2022/09/26 00:23:50;;;;;;;1.43;1.03;;;;;;;;;;5048655;28;20252;-84
2022/09/26 00:26:19;;;;;;;1.67;1.03;;;;;;;;;;5051041;28;20239;-84
2022/09/26 00:28:49;;;;;;;4.20;2.00;;;;;;;;;;5049534;28;20203;-84
2022/09/26 00:31:18;;;;;;;1.57;1.37;;;;;;;;;;5040694;28;20208;-84
2022/09/26 00:33:49;;;;;;;6.40;1.43;;;;;;;;;;5060501;28;20223;-84
2022/09/26 00:36:17;;;;;;;4.70;1.43;;;;;;;;;;5046511;28;20231;-84
2022/09/26 00:38:45;;;;;;;2.03;1.47;;;;;;;;;;5025862;28;20195;-83
2022/09/26 00:41:15;;;;;;;3.33;2.07;;;;;;;;;;5040131;28;20201;-84
2022/09/26 00:43:44;;;;;;;3.17;1.97;;;;;;;;;;5043220;28;20216;-84
2022/09/26 00:46:23;;;;;;;1.80;1.20;;;;;;;;;;5062417;28;20202;-84
2022/09/26 00:48:56;;;;;;;9.80;1.30;;;;;;;;;;5029960;28;20199;-84
2022/09/26 00:51:24;;;;;;;4.73;1.03;;;;;;;;;;5032399;28;20219;-84
2022/09/26 00:53:54;;;;;;;3.83;2.27;;;;;;;;;;5047054;28;20285;-84
2022/09/26 00:56:24;;;;;;;0.83;0.83;;;;;;;;;;5068683;28;20195;-83
2022/09/26 00:58:56;;;;;;;7.13;1.60;;;;;;;;;;5047521;28;20199;-84
2022/09/26 01:01:25;;;;;;;12.53;2.07;;;;;;;;;;5038483;28;20214;-84
2022/09/26 01:03:55;;;;;;;4.80;1.17;;;;;;;;;;5054868;28;20216;-84
2022/09/26 01:06:26;;;;;;;3.03;1.00;;;;;;;;;;5052622;28;20253;-84
2022/09/26 01:08:57;;;;;;;1.30;1.20;;;;;;;;;;5051011;28;20197;-84
2022/09/26 01:11:26;;;;;;;11.73;1.83;;;;;;;;;;5032317;28;20298;-84
2022/09/26 01:13:54;;;;;;;2.73;1.50;;;;;;;;;;5047812;28;20196;-84
2022/09/26 01:16:23;;;;;;;1.80;1.47;;;;;;;;;;5037325;28;20204;-84
2022/09/26 01:18:53;;;;;;;2.27;1.13;;;;;;;;;;5042466;28;20215;-83
2022/09/26 01:21:40;;;;;;;12.17;1.30;;;;;;;;;;5047819;28;20254;-84
2022/09/26 01:24:32;;;;;;;2.37;0.93;;;;;;;;;;5045229;28;20250;-84
2022/09/26 01:27:08;;;;;;;4.07;1.60;;;;;;;;;;5033094;28;20227;-85
2022/09/26 01:30:01;;;;;;;1.87;0.90;;;;;;;;;;5036149;28;20202;-84
2022/09/26 01:32:50;;;;;;;0.73;0.73;;;;;;;;;;5066463;28;20206;-84
2022/09/26 01:35:29;;;;;;;1.00;1.00;;;;;;;;;;5047976;28;20208;-84
2022/09/26 01:38:02;;;;;;;1.10;0.80;;;;;;;;;;5065046;28;20267;-84
2022/09/26 01:40:32;;;;;;;0.57;0.57;;;;;;;;;;5066961;28;20285;-84
2022/09/26 01:43:05;;;;;;;0.87;0.87;;;;;;;;;;5072057;28;20216;-84
2022/09/26 01:45:38;;;;;;;1.10;0.80;;;;;;;;;;5040727;28;20254;-84
2022/09/26 01:48:12;;;;;;;1.20;0.90;;;;;;;;;;5045571;28;20203;-84
2022/09/26 01:50:44;;;;;;;4.90;1.00;;;;;;;;;;5042670;28;20213;-84
2022/09/26 01:53:15;;;;;;;0.60;0.60;;;;;;;;;;5043734;28;20192;-84
2022/09/26 01:55:45;;;;;;;0.83;0.80;;;;;;;;;;5048419;28;20195;-84
2022/09/26 01:58:16;;;;;;;1.07;1.07;;;;;;;;;;5035590;28;20259;-84
2022/09/26 02:00:47;;;;;;;0.70;0.70;;;;;;;;;;5064638;28;20221;-84
2022/09/26 02:03:19;;;;;;;3.50;0.87;;;;;;;;;;5050319;28;20223;-84
2022/09/26 02:05:50;;;;;;;3.07;0.80;;;;;;;;;;5054895;28;20311;-84
2022/09/26 02:08:23;;;;;;;1.90;1.30;;;;;;;;;;5069082;28;20205;-84
2022/09/26 02:10:58;;;;;;;3.10;1.57;;;;;;;;;;5035297;28;20198;-84
2022/09/26 02:13:29;;;;;;;1.50;1.10;;;;;;;;;;5068300;28;20196;-84
2022/09/26 02:16:01;;;;;;;7.93;1.60;;;;;;;;;;5054744;28;20195;-83
2022/09/26 02:18:32;;;;;;;1.00;0.93;;;;;;;;;;5053925;28;20342;-84
2022/09/26 02:21:02;;;;;;;1.57;0.93;;;;;;;;;;5042734;28;20209;-84
2022/09/26 02:23:31;;;;;;;1.23;1.23;;;;;;;;;;5045962;28;20227;-84
2022/09/26 02:26:00;;;;;;;1.60;0.90;;;;;;;;;;5053002;28;20201;-84
2022/09/26 02:28:28;;;;;;;1.30;1.13;;;;;;;;;;5043563;28;20199;-84
2022/09/26 02:30:59;;;;;;;1.87;1.00;;;;;;;;;;5069933;28;20212;-84
2022/09/26 02:33:28;;;;;;;2.03;1.27;;;;;;;;;;5045877;28;20254;-84
2022/09/26 02:35:58;;;;;;;3.17;1.43;;;;;;;;;;5051406;28;20228;-84
2022/09/26 02:38:28;;;;;;;7.30;1.43;;;;;;;;;;5043624;28;20201;-84
2022/09/26 02:40:58;;;;;;;2.03;1.93;;;;;;;;;;5052099;28;20254;-84
2022/09/26 02:43:44;;;;;;;2.53;1.47;;;;;;;;;;5071148;28;20220;-84
2022/09/26 02:46:29;;;;;;;1.70;1.30;;;;;;;;;;5070624;28;20279;-84
2022/09/26 02:49:08;;;;;;;1.37;1.03;;;;;;;;;;5050076;28;20259;-84
2022/09/26 02:52:01;;;;;;;3.77;1.70;;;;;;;;;;5046019;28;20298;-84
2022/09/26 02:54:33;;;;;;;2.23;1.80;;;;;;;;;;5054814;28;20216;-84
2022/09/26 02:57:07;;;;;;;0.90;0.90;;;;;;;;;;5070084;28;20203;-84
2022/09/26 02:59:39;;;;;;;6.03;1.37;;;;;;;;;;5055196;28;20199;-83
2022/09/26 03:02:12;;;;;;;6.03;1.57;;;;;;;;;;5035138;28;20312;-84
2022/09/26 03:04:44;;;;;;;8.70;1.30;;;;;;;;;;5046754;28;20220;-84
2022/09/26 03:07:17;;;;;;;2.93;1.10;;;;;;;;;;5023285;28;20201;-84
2022/09/26 03:09:45;;;;;;;1.60;1.40;;;;;;;;;;5049620;28;20215;-84
2022/09/26 03:12:15;;;;;;;1.70;1.23;;;;;;;;;;5054814;28;20196;-84
2022/09/26 03:14:45;;;;;;;5.43;1.73;;;;;;;;;;5052938;28;20200;-84
2022/09/26 03:17:15;;;;;;;1.23;1.10;;;;;;;;;;5053609;28;20201;-84
2022/09/26 03:19:46;;;;;;;1.10;1.10;;;;;;;;;;5053979;28;20204;-84
2022/09/26 03:22:16;;;;;;;2.07;1.03;;;;;;;;;;5043339;28;20216;-84
2022/09/26 03:24:45;;;;;;;1.33;1.17;;;;;;;;;;5038932;28;20262;-84
2022/09/26 03:27:14;;;;;;;5.00;1.20;;;;;;;;;;5069818;28;20269;-84
2022/09/26 03:29:43;;;;;;;1.33;0.90;;;;;;;;;;5039813;28;20200;-84
2022/09/26 03:32:11;;;;;;;6.20;1.57;;;;;;;;;;5069920;28;20226;-84
2022/09/26 03:34:40;;;;;;;2.93;1.03;;;;;;;;;;5057438;28;20226;-84
2022/09/26 03:37:08;;;;;;;1.10;1.00;;;;;;;;;;5039981;28;20210;-84
2022/09/26 03:39:38;;;;;;;1.73;0.73;;;;;;;;;;5052410;28;20203;-84
2022/09/26 03:42:07;;;;;;;3.73;1.40;;;;;;;;;;5041530;28;20287;-84
2022/09/26 03:44:35;;;;;;;2.43;1.30;;;;;;;;;;5052742;28;20212;-84
2022/09/26 03:47:04;;;;;;;1.63;0.97;;;;;;;;;;5068314;28;20226;-84
2022/09/26 03:49:32;;;;;;;0.97;0.93;;;;;;;;;;5033428;28;20209;-84
2022/09/26 03:52:01;;;;;;;0.73;0.73;;;;;;;;;;5034146;28;20376;-84
2022/09/26 03:54:29;;;;;;;3.73;1.80;;;;;;;;;;5041810;28;20275;-84
2022/09/26 03:56:59;;;;;;;1.10;1.10;;;;;;;;;;5067094;28;20204;-84
2022/09/26 03:59:27;;;;;;;2.97;1.83;;;;;;;;;;5042762;28;20198;-84
2022/09/26 04:01:56;;;;;;;4.03;2.20;;;;;;;;;;5040235;28;20222;-84
2022/09/26 04:04:24;;;;;;;5.47;1.57;;;;;;;;;;5052766;28;20214;-84
2022/09/26 04:06:55;;;;;;;4.70;1.93;;;;;;;;;;5048430;28;20203;-84
2022/09/26 04:09:23;;;;;;;3.43;1.70;;;;;;;;;;5033118;28;20260;-84
2022/09/26 04:11:52;;;;;;;3.87;1.33;;;;;;;;;;5046290;28;20202;-84
2022/09/26 04:14:21;;;;;;;2.83;1.70;;;;;;;;;;5033283;28;20237;-84
2022/09/26 04:16:50;;;;;;;7.87;3.50;;;;;;;;;;5038711;28;20206;-84
2022/09/26 04:19:18;;;;;;;4.53;2.40;;;;;;;;;;5052448;28;20206;-84
2022/09/26 04:21:47;;;;;;;8.53;2.70;;;;;;;;;;5067704;28;20212;-84
2022/09/26 04:24:16;;;;;;;5.67;2.27;;;;;;;;;;5038986;28;20246;-84
2022/09/26 04:26:45;;;;;;;2.20;1.97;;;;;;;;;;5056069;28;20207;-84
2022/09/26 04:29:14;;;;;;;4.43;2.60;;;;;;;;;;5035249;28;20209;-84
2022/09/26 04:31:45;;;;;;;4.67;2.73;;;;;;;;;;5052900;28;20206;-84
2022/09/26 04:34:14;;;;;;;6.67;2.20;;;;;;;;;;5052179;28;20198;-84
2022/09/26 04:36:43;;;;;;;3.87;2.30;;;;;;;;;;5068927;28;20210;-84
2022/09/26 04:39:11;;;;;;;6.37;2.70;;;;;;;;;;5038997;28;20194;-84
2022/09/26 04:41:40;;;;;;;3.67;2.87;;;;;;;;;;5042077;28;20226;-84
2022/09/26 04:44:08;;;;;;;5.93;3.07;;;;;;;;;;5049746;28;20233;-83
2022/09/26 04:46:36;;;;;;;3.03;2.27;;;;;;;;;;5052026;28;20289;-83
2022/09/26 04:49:06;;;;;;;7.23;3.00;;;;;;;;;;5049599;28;20274;-83
2022/09/26 04:51:35;;;;;;;4.67;2.70;;;;;;;;;;5043991;28;20198;-83
2022/09/26 04:54:04;;;;;;;4.07;2.53;;;;;;;;;;5053288;28;20236;-83
2022/09/26 04:56:32;;;;;;;6.17;3.00;;;;;;;;;;5039753;28;20195;-83
2022/09/26 04:59:01;;;;;;;5.37;2.83;;;;;;;;;;5032209;28;20191;-84
2022/09/26 05:01:29;;;;;;;5.17;3.00;;;;;;;;;;5031269;28;20239;-84
2022/09/26 05:03:58;;;;;;;8.60;3.47;;;;;;;;;;5019202;28;20191;-81
2022/09/26 05:06:29;;;;;;;3.83;2.97;;;;;;;;;;5045409;28;20208;-84
2022/09/26 05:08:57;;;;;;;4.80;2.60;;;;;;;;;;5052543;28;20210;-83
2022/09/26 05:11:25;;;;;;;9.27;3.63;;;;;;;;;;5066065;28;20195;-84
2022/09/26 05:13:54;;;;;;;6.00;3.23;;;;;;;;;;5032603;28;20210;-84
2022/09/26 05:16:22;;;;;;;6.33;2.70;;;;;;;;;;5048529;28;20217;-84
2022/09/26 05:18:51;;;;;;;10.10;3.73;;;;;;;;;;5052345;28;20198;-83
2022/09/26 05:21:20;;;;;;;2.43;2.17;;;;;;;;;;5041458;28;20198;-84
2022/09/26 05:26:42;;;;;;;3.17;2.80;;;;;;;;;;5044847;28;20210;-83
2022/09/26 05:29:11;;;;;;;6.50;3.63;;;;;;;;;;5033742;28;20210;-84
2022/09/26 05:31:42;;;;;;;7.20;3.13;;;;;;;;;;5052650;28;20202;-84
2022/09/26 05:34:11;;;;;;;7.00;3.03;;;;;;;;;;5065733;28;20198;-84
2022/09/26 05:36:46;;;;;;;4.07;2.97;;;;;;;;;;5032032;28;20203;-83
2022/09/26 05:42:09;;;;;;;5.00;3.03;;;;;;;;;;5062418;28;20202;-84
2022/09/26 05:44:38;;;;;;;6.10;3.20;;;;;;;;;;5067824;28;20246;-84
2022/09/26 05:47:07;;;;;;;5.30;3.40;;;;;;;;;;5037398;28;20210;-85
2022/09/26 05:49:36;;;;;;;7.10;3.67;;;;;;;;;;5032007;28;20242;-85
2022/09/26 05:52:04;;;;;;;8.73;2.97;;;;;;;;;;5046371;28;20214;-84
2022/09/26 05:54:34;;;;;;;7.43;3.60;;;;;;;;;;5030521;28;20203;-84
2022/09/26 05:57:03;;;;;;;3.90;2.40;;;;;;;;;;5038075;28;20199;-85
2022/09/26 05:59:31;;;;;;;3.70;2.77;;;;;;;;;;5047540;28;20215;-85
2022/09/26 06:02:00;;;;;;;3.73;2.10;;;;;;;;;;5029130;28;20231;-85
2022/09/26 06:04:28;;;;;;;6.60;3.87;;;;;;;;;;5032421;28;20235;-85
2022/09/26 06:06:57;;;;;;;2.97;2.07;;;;;;;;;;5037254;28;20186;-85
2022/09/26 06:09:25;;;;;;;6.30;2.63;;;;;;;;;;5052216;28;20234;-84
2022/09/26 06:11:55;;;;;;;7.37;4.43;;;;;;;;;;5067324;28;20248;-83
2022/09/26 06:14:25;;;;;;;4.97;2.87;;;;;;;;;;5054724;28;20198;-84
2022/09/26 06:16:53;;;;;;;3.97;3.17;;;;;;;;;;5029442;28;20205;-84
2022/09/26 06:19:22;;;;;;;7.57;3.77;;;;;;;;;;5053523;28;20198;-84
2022/09/26 06:21:51;;;;;;;5.83;2.40;;;;;;;;;;5055983;28;20261;-83
2022/09/26 06:24:19;;;;;;;6.43;3.30;;;;;;;;;;5043110;28;20242;-84
2022/09/26 06:26:48;;;;;;;8.17;3.10;;;;;;;;;;5053432;28;20221;-83
2022/09/26 06:29:18;;;;;;;4.10;2.97;;;;;;;;;;5053828;28;20219;-83
2022/09/26 06:31:46;;;;;;;6.60;3.77;;;;;;;;;;5054439;28;20268;-82
2022/09/26 06:34:15;;;;;;;3.97;2.90;;;;;;;;;;5068627;28;20199;-84
2022/09/26 06:36:45;;;;;;;2.00;1.90;;;;;;;;;;5046108;28;20195;-83
2022/09/26 06:39:14;;;;;;;6.23;3.40;;;;;;;;;;5046443;28;20195;-85
2022/09/26 06:41:43;;;;;;;6.57;3.80;;;;;;;;;;5046070;28;20233;-85
2022/09/26 06:44:11;;;;;;;6.13;4.00;;;;;;;;;;5043604;28;20273;-84
2022/09/26 06:46:41;;;;;;;4.67;3.43;;;;;;;;;;5039403;28;20207;-84
2022/09/26 06:49:10;;;;;;;4.97;3.30;;;;;;;;;;5052957;28;20233;-84
2022/09/26 06:51:38;;;;;;;7.83;3.97;;;;;;;;;;5043704;28;20214;-84
2022/09/26 06:54:06;;;;;;;6.67;3.87;;;;;;;;;;5048984;28;20199;-83
2022/09/26 06:56:35;;;;;;;6.27;3.53;;;;;;;;;;5047131;28;20225;-84
2022/09/26 06:59:03;;;;;;;9.33;3.37;;;;;;;;;;5042446;28;20196;-84
2022/09/26 07:01:34;;;;;;;7.17;3.23;;;;;;;;;;5029436;28;20246;-84
2022/09/26 07:04:04;;;;;;;4.83;2.90;;;;;;;;;;5035571;28;20211;-84
2022/09/26 07:06:32;;;;;;;4.37;2.83;;;;;;;;;;5033645;28;20280;-84
2022/09/26 07:09:01;;;;;;;7.97;3.50;;;;;;;;;;5050691;28;20207;-85
2022/09/26 07:11:33;;;;;;;5.13;3.07;;;;;;;;;;5031275;28;20203;-84
2022/09/26 07:14:24;;;;;;;4.07;2.43;;;;;;;;;;5028351;28;20203;-84
2022/09/26 07:16:56;;;;;;;7.97;4.40;;;;;;;;;;5033456;28;20195;-84
2022/09/26 07:19:27;;;;;;;5.20;3.30;;;;;;;;;;5026670;28;20241;-82
2022/09/26 07:21:55;;;;;;;6.47;4.23;;;;;;;;;;5027839;28;20253;-84
2022/09/26 07:24:26;;;;;;;8.47;3.97;;;;;;;;;;5016986;28;20266;-81
2022/09/26 07:26:54;;;;;;;6.63;4.30;;;;;;;;;;5017189;28;20301;-84
2022/09/26 07:29:23;;;;;;;7.80;3.40;;;;;;;;;;5017605;28;20228;-84
2022/09/26 07:31:51;;;;;;;4.77;2.90;;;;;;;;;;5015889;28;20203;-84
2022/09/26 07:34:23;;;;;;;7.67;4.07;;;;;;;;;;5022043;28;20203;-83
2022/09/26 07:36:56;;;;;;;9.20;5.47;;;;;;;;;;5015481;28;20297;-84
2022/09/26 07:39:25;;;;;;;2.10;1.60;;;;;;;;;;5039312;28;20199;-84
2022/09/26 07:41:53;;;;;;;3.50;2.43;;;;;;;;;;5025483;28;20221;-85
2022/09/26 07:50:52;;;;;;;8.17;5.20;;;;;;;;;;5049266;28;20214;-85
2022/09/26 07:53:27;;;;;;;8.73;6.67;;;;;;;;;;5026313;28;20195;-84
2022/09/26 07:56:05;;;;;;;7.07;5.07;;;;;;;;;;5032992;28;20225;-85
2022/09/26 07:58:35;;;;;;;3.77;3.43;;;;;;;;;;5034137;28;20207;-85
2022/09/26 08:01:03;;;;;;;7.67;6.03;;;;;;;;;;5052076;28;20227;-85
2022/09/26 08:03:36;;;;;;;8.50;5.00;;;;;;;;;;5024459;28;20196;-84
2022/09/26 08:09:07;;;;;;;9.60;8.73;;;;;;;;;;5039892;28;20230;-85
2022/09/26 08:11:37;;;;;;;9.97;7.83;;;;;;;;;;5022011;28;20215;-85
2022/09/26 08:14:05;;;;;;;10.73;8.83;;;;;;;;;;5015743;28;20310;-85
2022/09/26 08:16:38;;;;;;;9.50;6.50;;;;;;;;;;5026927;28;20206;-85
2022/09/26 08:19:07;;;;;;;8.10;5.53;;;;;;;;;;5027031;28;20288;-84
2022/09/26 08:21:36;;;;;;;7.63;6.30;;;;;;;;;;5024846;28;20264;-86
2022/09/26 08:24:04;;;;;;;5.13;3.77;;;;;;;;;;5034076;28;20249;-84
2022/09/26 08:26:38;;;;;;;6.43;5.13;;;;;;;;;;5034239;28;20233;-84
2022/09/26 08:29:12;;;;;;;6.33;4.83;;;;;;;;;;5013971;28;20208;-83
2022/09/26 08:31:41;;;;;;;7.87;6.67;;;;;;;;;;5020171;28;20249;-83
2022/09/26 08:34:13;;;;;;;6.77;5.47;;;;;;;;;;5038047;28;20207;-84
2022/09/26 08:36:41;;;;;;;9.60;6.63;;;;;;;;;;5018725;28;20203;-84
2022/09/26 08:39:10;;;;;;;8.67;7.03;;;;;;;;;;5024918;28;20206;-86
2022/09/26 08:42:01;;;;;;;9.73;7.00;;;;;;;;;;5019493;28;20204;-84
2022/09/26 08:44:35;;;;;;;8.00;6.70;;;;;;;;;;5011122;28;20206;-84
2022/09/26 08:47:15;;;;;;;9.37;8.47;;;;;;;;;;5034897;28;20265;-85
2022/09/26 08:49:55;;;;;;;8.90;7.97;;;;;;;;;;5024901;28;20199;-84
2022/09/26 08:52:28;;;;;;;8.70;7.97;;;;;;;;;;5022324;28;20333;-85
2022/09/26 08:54:58;;;;;;;8.53;7.53;;;;;;;;;;5015818;28;20203;-84
2022/09/26 08:57:34;;;;;;;9.63;8.73;;;;;;;;;;5019995;28;20212;-85
2022/09/26 09:00:07;;;;;;;7.60;6.90;;;;;;;;;;5020160;28;20265;-85
2022/09/26 09:02:39;;;;;;;7.30;6.60;;;;;;;;;;5027139;28;20222;-85
2022/09/26 09:05:12;;;;;;;8.90;8.07;;;;;;;;;;5033835;28;20215;-86
2022/09/26 09:07:40;;;;;;;9.77;8.67;;;;;;;;;;5029163;28;20215;-86
2022/09/26 09:10:15;;;;;;;7.93;6.40;;;;;;;;;;5029311;28;20206;-85
2022/09/26 09:12:48;;;;;;;9.67;7.67;;;;;;;;;;5018463;28;20210;-85
2022/09/26 09:15:24;;;;;;;6.23;5.63;;;;;;;;;;5019258;28;20208;-87
2022/09/26 09:18:03;;;;;;;7.60;6.33;;;;;;;;;;5016674;28;20219;-85
2022/09/26 09:20:40;;;;;;;2.40;2.20;;;;;;;;;;5011532;28;20222;-85
2022/09/26 09:23:17;;;;;;;6.80;6.10;;;;;;;;;;5017194;28;20279;-85
2022/09/26 09:25:48;;;;;;;3.33;2.40;;;;;;;;;;5024150;28;20269;-85
2022/09/26 09:28:26;;;;;;;1.40;1.37;;;;;;;;;;5013804;28;20281;-85
2022/09/26 09:30:59;;;;;;;5.60;4.07;;;;;;;;;;5020314;28;20290;-86
2022/09/26 09:33:30;;;;;;;5.00;3.50;;;;;;;;;;5039990;28;20214;-86
2022/09/26 09:36:03;;;;;;;3.90;3.40;;;;;;;;;;5012864;28;20228;-86
2022/09/26 09:38:33;;;;;;;4.53;3.50;;;;;;;;;;5016737;28;20200;-86
2022/09/26 09:41:06;;;;;;;5.63;4.17;;;;;;;;;;5045107;28;20268;-87
2022/09/26 09:43:43;;;;;;;5.27;4.20;;;;;;;;;;5043748;28;20199;-87
2022/09/26 09:46:17;;;;;;;5.43;3.60;;;;;;;;;;5021789;28;20250;-85
2022/09/26 09:48:47;;;;;;;5.33;4.03;;;;;;;;;;5025669;28;20199;-86
2022/09/26 09:51:20;;;;;;;4.03;2.80;;;;;;;;;;5033022;28;20203;-86
2022/09/26 09:53:58;;;;;;;6.77;2.23;;;;;;;;;;5030538;28;20237;-87
2022/09/26 09:56:32;;;;;;;3.13;2.90;;;;;;;;;;5026323;28;20203;-87
2022/09/26 09:59:09;;;;;;;3.47;2.83;;;;;;;;;;5032462;28;20208;-86
2022/09/26 10:01:40;;;;;;;1.50;1.30;;;;;;;;;;5038062;28;20303;-86
2022/09/26 10:04:19;;;;;;;3.60;3.30;;;;;;;;;;5025281;28;20205;-86
2022/09/26 10:06:48;;;;;;;2.87;2.60;;;;;;;;;;5037480;28;20298;-86
2022/09/26 10:09:20;;;;;;;2.90;2.57;;;;;;;;;;5025745;28;20199;-86
2022/09/26 10:12:09;;;;;;;5.03;3.23;;;;;;;;;;5032976;28;20216;-85
2022/09/26 10:14:43;;;;;;;3.23;2.57;;;;;;;;;;5054107;28;20208;-85
2022/09/26 10:17:19;;;;;;;1.67;1.57;;;;;;;;;;5020884;28;20245;-85
2022/09/26 10:19:47;;;;;;;0.73;0.73;;;;;;;;;;5029052;28;20203;-85
2022/09/26 10:22:24;;;;;;;0.87;0.87;;;;;;;;;;5030705;28;20269;-88
2022/09/26 10:25:01;;;;;;;4.90;1.43;;;;;;;;;;5039070;28;20254;-85
2022/09/26 10:27:35;;;;;;;4.03;0.70;;;;;;;;;;5032540;28;20220;-86
2022/09/26 10:30:24;;;;;;;1.03;0.90;;;;;;;;;;5022432;28;20210;-86
2022/09/26 10:32:55;;;;;;;3.00;1.90;;;;;;;;;;5046994;28;20198;-86
2022/09/26 10:35:28;;;;;;;0.63;0.63;;;;;;;;;;5022772;28;20244;-86
2022/09/26 10:38:01;;;;;;;0.83;0.83;;;;;;;;;;5033283;28;20252;-86
2022/09/26 10:40:47;;;;;;;3.10;0.70;;;;;;;;;;5030035;28;20283;-86
2022/09/26 10:43:21;;;;;;;1.80;1.23;;;;;;;;;;5020276;28;20213;-85
2022/09/26 10:45:52;;;;;;;3.70;3.37;;;;;;;;;;5036048;28;20208;-84
2022/09/26 10:48:23;;;;;;;2.93;2.00;;;;;;;;;;5035910;28;20242;-85
2022/09/26 10:50:54;;;;;;;0.83;0.60;;;;;;;;;;5022049;28;20199;-85
2022/09/26 10:53:23;;;;;;;10.17;1.43;;;;;;;;;;5033129;28;20197;-88
2022/09/26 10:55:56;;;;;;;1.57;1.20;;;;;;;;;;5032459;28;20229;-86
2022/09/26 10:58:38;;;;;;;2.23;1.80;;;;;;;;;;5030145;28;20218;-85
2022/09/26 11:01:07;;;;;;;5.40;1.33;;;;;;;;;;5018818;28;20223;-86
2022/09/26 11:03:41;;;;;;;2.30;0.90;;;;;;;;;;5019818;28;20230;-86
2022/09/26 11:06:21;;;;;;;7.03;1.60;;;;;;;;;;5025566;28;20296;-85
2022/09/26 11:08:52;;;;;;;0.77;0.77;;;;;;;;;;5021036;28;20272;-85
2022/09/26 11:11:37;;;;;;;6.90;1.33;;;;;;;;;;5031918;28;20214;-84
2022/09/26 11:14:11;;;;;;;4.17;1.63;;;;;;;;;;5034968;28;20287;-84
2022/09/26 11:16:51;;;;;;;1.13;1.13;;;;;;;;;;5023675;28;20218;-84
2022/09/26 11:19:26;;;;;;;2.53;1.23;;;;;;;;;;5037817;28;20206;-85
2022/09/26 11:21:58;;;;;;;5.07;1.73;;;;;;;;;;5018135;28;20219;-86
2022/09/26 11:24:36;;;;;;;3.40;2.10;;;;;;;;;;5035913;28;20300;-85
2022/09/26 11:27:07;;;;;;;0.50;0.50;;;;;;;;;;5019773;28;20230;-85
2022/09/26 11:29:44;;;;;;;1.07;0.90;;;;;;;;;;5037714;28;20226;-86
2022/09/26 11:32:14;;;;;;;2.73;1.13;;;;;;;;;;5021371;28;20211;-85
2022/09/26 11:34:44;;;;;;;6.33;1.90;;;;;;;;;;5031457;28;20205;-85
2022/09/26 11:37:29;;;;;;;2.87;1.97;;;;;;;;;;5018237;28;20206;-86
2022/09/26 11:40:05;;;;;;;1.07;0.90;;;;;;;;;;5019982;28;20285;-85
2022/09/26 11:42:43;;;;;;;2.53;1.47;;;;;;;;;;5023711;28;20201;-86
2022/09/26 11:45:16;;;;;;;3.30;0.83;;;;;;;;;;5036007;28;20212;-85
2022/09/26 11:48:05;;;;;;;0.50;0.50;;;;;;;;;;5014825;28;20287;-84
2022/09/26 11:50:44;;;;;;;3.13;0.77;;;;;;;;;;5022349;28;20210;-85
2022/09/26 11:53:31;;;;;;;4.00;1.97;;;;;;;;;;5032291;28;20259;-85
2022/09/26 11:56:07;;;;;;;0.90;0.90;;;;;;;;;;5016601;28;20241;-85
2022/09/26 11:58:42;;;;;;;10.57;1.43;;;;;;;;;;5031831;28;20201;-85
2022/09/26 12:01:18;;;;;;;5.37;2.97;;;;;;;;;;5020660;28;20226;-85
2022/09/26 12:04:06;;;;;;;0.90;0.90;;;;;;;;;;5019076;28;20202;-85
2022/09/26 12:06:40;;;;;;;3.50;1.67;;;;;;;;;;5032984;28;20208;-85
2022/09/26 12:09:21;;;;;;;5.43;1.83;;;;;;;;;;5021962;28;20221;-86
2022/09/26 12:11:54;;;;;;;2.93;1.27;;;;;;;;;;5031130;28;20210;-86
2022/09/26 12:14:35;;;;;;;1.80;1.27;;;;;;;;;;5051439;28;20203;-86
2022/09/26 12:17:06;;;;;;;3.50;2.57;;;;;;;;;;5022209;28;20205;-87
2022/09/26 12:19:37;;;;;;;4.80;1.57;;;;;;;;;;5051158;28;20198;-86
2022/09/26 12:22:31;;;;;;;10.73;2.60;;;;;;;;;;5032852;28;20400;-85
2022/09/26 12:25:06;;;;;;;2.77;1.77;;;;;;;;;;5017434;28;20238;-86
2022/09/26 12:27:37;;;;;;;3.70;1.40;;;;;;;;;;5014511;28;20201;-86
2022/09/26 12:30:07;;;;;;;1.00;1.00;;;;;;;;;;5036699;28;20218;-85
2022/09/26 12:32:48;;;;;;;6.43;3.27;;;;;;;;;;5020355;28;20210;-86
2022/09/26 12:35:20;;;;;;;1.60;0.93;;;;;;;;;;5037312;28;20196;-86
2022/09/26 12:38:07;;;;;;;8.80;2.23;;;;;;;;;;5027500;28;20206;-87
2022/09/26 12:40:40;;;;;;;1.10;0.77;;;;;;;;;;5026146;28;20209;-86
2022/09/26 12:43:18;;;;;;;2.20;0.90;;;;;;;;;;5023885;28;20208;-86
2022/09/26 12:46:01;;;;;;;5.33;2.27;;;;;;;;;;5020477;28;20233;-83
2022/09/26 12:48:35;;;;;;;4.03;1.20;;;;;;;;;;5018420;28;20227;-84
2022/09/26 12:51:18;;;;;;;6.23;2.17;;;;;;;;;;5026147;28;20258;-84
2022/09/26 12:53:58;;;;;;;4.50;1.63;;;;;;;;;;5043049;28;20203;-85
2022/09/26 12:56:36;;;;;;;2.43;0.73;;;;;;;;;;5024132;28;20195;-85
2022/09/26 12:59:11;;;;;;;2.70;1.07;;;;;;;;;;5032582;28;20220;-85
2022/09/26 13:01:56;;;;;;;1.47;1.30;;;;;;;;;;5023518;28;20238;-85
2022/09/26 13:04:35;;;;;;;7.43;2.83;;;;;;;;;;5020251;28;20202;-86
2022/09/26 13:07:10;;;;;;;5.63;2.60;;;;;;;;;;5025099;28;20224;-85
2022/09/26 13:09:55;;;;;;;5.90;2.00;;;;;;;;;;5021341;28;20846;-85
2022/09/26 13:12:37;;;;;;;6.03;2.03;;;;;;;;;;5019844;28;20196;-86
2022/09/26 13:15:17;;;;;;;1.27;1.17;;;;;;;;;;5027997;28;20247;-85
2022/09/26 13:17:48;;;;;;;7.93;2.33;;;;;;;;;;5039170;28;20203;-86
2022/09/26 13:20:19;;;;;;;4.80;2.53;;;;;;;;;;5022400;28;20202;-87
2022/09/26 13:22:49;;;;;;;1.20;0.73;;;;;;;;;;5037269;28;20206;-85
2022/09/26 13:25:20;;;;;;;11.87;2.67;;;;;;;;;;5037409;28;20238;-85
2022/09/26 13:27:55;;;;;;;5.50;2.47;;;;;;;;;;5037708;28;20208;-85
2022/09/26 13:30:25;;;;;;;1.57;1.47;;;;;;;;;;5026473;28;20225;-86
2022/09/26 13:32:59;;;;;;;4.30;1.57;;;;;;;;;;5020309;28;20283;-86
2022/09/26 13:35:30;;;;;;;7.50;1.80;;;;;;;;;;5028108;28;20219;-85
2022/09/26 13:38:08;;;;;;;1.83;1.37;;;;;;;;;;5027222;28;20208;-86
2022/09/26 13:40:40;;;;;;;7.73;1.53;;;;;;;;;;5022939;28;20191;-86
2022/09/26 13:43:16;;;;;;;3.53;0.90;;;;;;;;;;5021103;28;20266;-86
2022/09/26 13:45:59;;;;;;;11.50;2.83;;;;;;;;;;5027091;28;20299;-86
2022/09/26 13:48:37;;;;;;;14.27;3.07;;;;;;;;;;5032386;28;20211;-86
2022/09/26 13:51:12;;;;;;;4.23;1.30;;;;;;;;;;5028205;28;20204;-86
2022/09/26 13:53:43;;;;;;;0.30;0.30;;;;;;;;;;5028223;28;20233;-86
2022/09/26 13:56:30;;;;;;;8.07;2.27;;;;;;;;;;5020425;28;20205;-87
2022/09/26 13:59:24;;;;;;;1.03;1.03;;;;;;;;;;5029889;28;20198;-87
2022/09/26 14:02:13;;;;;;;7.53;2.10;;;;;;;;;;5025587;28;20227;-86
2022/09/26 14:04:41;;;;;;;4.20;1.07;;;;;;;;;;5034016;28;20209;-87
2022/09/26 14:10:12;;;;;;;4.50;1.03;;;;;;;;;;5028475;28;20216;-85
2022/09/26 14:12:55;;;;;;;4.87;1.90;;;;;;;;;;5018559;28;20204;-85
2022/09/26 14:15:27;;;;;;;2.03;1.10;;;;;;;;;;5029822;28;20209;-85
2022/09/26 14:18:04;;;;;;;3.23;1.43;;;;;;;;;;5018757;28;20207;-86
2022/09/26 14:20:34;;;;;;;5.73;1.97;;;;;;;;;;5020177;28;20255;-86
2022/09/26 14:23:03;;;;;;;5.17;1.50;;;;;;;;;;5037445;28;20261;-85
2022/09/26 14:25:50;;;;;;;2.57;1.60;;;;;;;;;;5037105;28;20234;-86
2022/09/26 14:28:23;;;;;;;11.23;1.53;;;;;;;;;;5035710;28;20268;-86
2022/09/26 14:31:20;;;;;;;13.10;0.97;;;;;;;;;;5026710;28;20309;-86
2022/09/26 14:33:50;;;;;;;3.90;2.97;;;;;;;;;;5021453;28;20214;-86
2022/09/26 14:36:24;;;;;;;2.10;1.43;;;;;;;;;;5018402;28;20236;-83
2022/09/26 14:38:54;;;;;;;0.53;0.53;;;;;;;;;;5023696;28;20198;-86
2022/09/26 14:41:26;;;;;;;7.47;2.37;;;;;;;;;;5016827;28;20221;-85
2022/09/26 14:43:59;;;;;;;7.90;2.03;;;;;;;;;;5023806;28;20203;-86
2022/09/26 14:46:31;;;;;;;0.30;0.30;;;;;;;;;;5035734;28;20207;-86
2022/09/26 14:49:03;;;;;;;0.40;0.40;;;;;;;;;;5046231;28;20236;-84
2022/09/26 14:51:32;;;;;;;0.30;0.30;;;;;;;;;;5015219;28;20223;-83
2022/09/26 14:54:02;;;;;;;0.40;0.40;;;;;;;;;;5036658;28;20246;-83
2022/09/26 14:56:36;;;;;;;0.40;0.40;;;;;;;;;;5026998;28;20215;-83
2022/09/26 14:59:23;;;;;;;0.40;0.40;;;;;;;;;;5024889;28;20208;-83
2022/09/26 15:01:53;;;;;;;0.40;0.40;;;;;;;;;;5042802;28;20245;-84
2022/09/26 15:04:23;;;;;;;0.40;0.40;;;;;;;;;;5023771;28;20204;-84
2022/09/26 15:06:53;;;;;;;0.40;0.40;;;;;;;;;;5023801;28;20274;-84
2022/09/26 15:09:23;;;;;;;0.40;0.40;;;;;;;;;;5021549;28;20223;-83
2022/09/26 15:11:55;;;;;;;0.40;0.40;;;;;;;;;;5043975;28;20196;-85
2022/09/26 15:14:28;;;;;;;0.40;0.40;;;;;;;;;;5019330;28;20244;-84
2022/09/26 15:16:59;;;;;;;0.40;0.40;;;;;;;;;;5015066;28;20234;-85
2022/09/26 15:19:32;;;;;;;0.40;0.40;;;;;;;;;;5029086;28;20211;-87
2022/09/26 15:22:01;;;;;;;0.40;0.40;;;;;;;;;;5021482;28;20195;-84
2022/09/26 15:24:32;;;;;;;0.40;0.40;;;;;;;;;;5020613;28;20247;-83
2022/09/26 15:27:02;;;;;;;0.40;0.40;;;;;;;;;;5015490;28;20209;-82
2022/09/26 15:29:30;;;;;;;0.40;0.40;;;;;;;;;;5018581;28;20234;-82
2022/09/26 15:32:01;;;;;;;0.40;0.40;;;;;;;;;;5024776;28;20203;-83
2022/09/26 15:34:33;;;;;;;0.40;0.40;;;;;;;;;;5024082;28;20281;-82